Time;durP1;ratioP1;P1;durP2;ratioP2;P2;SDS_P1;SDS_P2;PMS_P1;PMS_P2;Temp;Humidity;BMP_temperature;BMP_pressure;BME280_temperature;BME280_humidity;BME280_pressure;Samples;Min_cycle;Max_cycle;Signal;HPM_P1;HPM_P2
2023/07/25 00:01:26;;;;;;;7.45;4.30;;;12.40;99.90;;;;;;5057468;28;20201;-76
2023/07/25 00:03:56;;;;;;;9.80;4.88;;;12.50;99.90;;;;;;5068119;28;20220;-76
2023/07/25 00:06:27;;;;;;;8.85;5.57;;;12.60;99.90;;;;;;5062445;28;20197;-78
2023/07/25 00:08:58;;;;;;;10.90;5.32;;;12.70;99.90;;;;;;5066084;28;20233;-78
2023/07/25 00:11:31;;;;;;;7.93;5.30;;;12.80;99.90;;;;;;5072749;28;20199;-74
2023/07/25 00:14:01;;;;;;;9.05;4.70;;;13.00;99.90;;;;;;5056103;28;20197;-75
2023/07/25 00:16:32;;;;;;;10.35;5.25;;;13.10;99.90;;;;;;5058707;28;20624;-75
2023/07/25 00:19:03;;;;;;;7.40;4.65;;;13.20;99.90;;;;;;5055077;28;20197;-75
2023/07/25 00:21:34;;;;;;;6.95;4.63;;;13.30;99.90;;;;;;5055456;28;20213;-79
2023/07/25 00:24:04;;;;;;;8.38;5.65;;;13.40;99.90;;;;;;5068091;28;20198;-74
2023/07/25 00:26:37;;;;;;;8.05;4.93;;;13.50;99.90;;;;;;5056725;28;20292;-74
2023/07/25 00:29:08;;;;;;;8.23;4.47;;;13.70;99.90;;;;;;5062478;28;20190;-75
2023/07/25 00:31:39;;;;;;;9.45;4.53;;;13.80;99.90;;;;;;5055273;28;20186;-76
2023/07/25 00:34:09;;;;;;;6.80;4.47;;;13.90;99.90;;;;;;5055314;28;20197;-75
2023/07/25 00:36:40;;;;;;;10.35;4.88;;;14.00;99.90;;;;;;5055193;28;20197;-74
2023/07/25 00:39:11;;;;;;;7.97;5.03;;;14.20;99.90;;;;;;5072790;28;20239;-74
2023/07/25 00:41:44;;;;;;;8.35;5.00;;;14.30;99.90;;;;;;5075218;28;20203;-75
2023/07/25 00:44:14;;;;;;;13.70;5.93;;;14.40;99.90;;;;;;5063701;28;20205;-80
2023/07/25 00:46:46;;;;;;;9.00;5.00;;;14.50;99.90;;;;;;5054854;28;20236;-74
2023/07/25 00:49:16;;;;;;;8.15;4.75;;;14.60;99.90;;;;;;5055139;28;20553;-77
2023/07/25 00:51:47;;;;;;;9.30;4.65;;;14.70;99.90;;;;;;5054744;28;20212;-77
2023/07/25 00:54:18;;;;;;;8.13;4.57;;;14.80;99.90;;;;;;5073450;28;20201;-73
2023/07/25 00:56:51;;;;;;;8.30;4.70;;;15.00;99.90;;;;;;5074837;28;20189;-75
2023/07/25 00:59:21;;;;;;;9.20;4.82;;;15.10;99.90;;;;;;5074768;28;20214;-74
2023/07/25 01:01:52;;;;;;;6.55;5.10;;;15.20;99.90;;;;;;5074405;28;20185;-75
2023/07/25 01:04:23;;;;;;;8.35;4.82;;;15.40;99.90;;;;;;5054599;28;20665;-80
2023/07/25 01:06:55;;;;;;;10.48;5.03;;;15.50;99.90;;;;;;5054258;28;20189;-79
2023/07/25 01:09:40;;;;;;;9.30;5.25;;;15.60;99.90;;;;;;5060711;28;20600;-78
2023/07/25 01:12:13;;;;;;;7.93;4.28;;;15.70;99.90;;;;;;5053990;28;20604;-79
2023/07/25 01:14:44;;;;;;;7.45;4.20;;;15.80;99.90;;;;;;5066474;28;20197;-78
2023/07/25 01:17:16;;;;;;;10.38;4.72;;;15.90;99.90;;;;;;5074496;28;20209;-79
2023/07/25 01:19:48;;;;;;;11.43;4.95;;;16.00;99.90;;;;;;5073100;28;20185;-80
2023/07/25 01:22:19;;;;;;;8.35;4.45;;;16.00;99.90;;;;;;5054559;28;20642;-80
2023/07/25 01:24:57;;;;;;;8.13;4.25;;;16.10;99.90;;;;;;5053906;28;20281;-80
2023/07/25 01:27:28;;;;;;;7.35;4.00;;;16.10;99.90;;;;;;5054437;28;20203;-80
2023/07/25 01:29:59;;;;;;;6.82;4.35;;;16.20;99.90;;;;;;5054135;28;20196;-80
2023/07/25 01:32:30;;;;;;;8.07;4.32;;;16.30;99.90;;;;;;5064037;28;20201;-80
2023/07/25 01:35:01;;;;;;;6.47;3.30;;;16.40;99.90;;;;;;5074149;28;20237;-79
2023/07/25 01:37:32;;;;;;;7.05;3.20;;;16.50;99.90;;;;;;5074116;28;20676;-79
2023/07/25 01:40:05;;;;;;;6.65;3.35;;;16.60;99.90;;;;;;5074003;28;20246;-79
2023/07/25 01:42:36;;;;;;;9.57;3.05;;;16.80;99.90;;;;;;5069632;28;20203;-80
2023/07/25 01:45:07;;;;;;;5.72;2.65;;;16.80;99.90;;;;;;5053130;28;20202;-80
2023/07/25 01:47:38;;;;;;;5.53;2.65;;;16.90;99.90;;;;;;5064259;28;20219;-79
2023/07/25 01:50:09;;;;;;;5.97;2.30;;;17.00;99.90;;;;;;5053908;28;20194;-80
2023/07/25 01:52:40;;;;;;;5.28;2.30;;;17.10;99.90;;;;;;5063173;28;20201;-81
2023/07/25 01:55:13;;;;;;;4.30;2.17;;;17.20;99.90;;;;;;5071166;28;20200;-82
2023/07/25 01:57:44;;;;;;;4.22;2.10;;;17.30;99.90;;;;;;5062068;28;20217;-82
2023/07/25 02:00:15;;;;;;;5.22;2.33;;;17.40;99.90;;;;;;5073850;28;20644;-86
2023/07/25 02:02:46;;;;;;;6.95;2.53;;;17.40;99.90;;;;;;5073409;28;20196;-84
2023/07/25 02:05:17;;;;;;;6.20;2.20;;;17.40;99.90;;;;;;5073577;28;20197;-81
2023/07/25 02:07:48;;;;;;;4.35;2.40;;;17.50;99.90;;;;;;5073746;28;20193;-82
2023/07/25 02:10:21;;;;;;;6.85;2.47;;;17.60;99.90;;;;;;5075780;28;20237;-81
2023/07/25 02:12:53;;;;;;;5.13;2.65;;;17.80;99.90;;;;;;5093254;28;20200;-80
2023/07/25 02:15:23;;;;;;;6.75;2.80;;;17.80;99.90;;;;;;5074790;28;20282;-82
2023/07/25 02:17:54;;;;;;;5.47;2.80;;;17.80;99.90;;;;;;5071721;28;20217;-78
2023/07/25 02:20:26;;;;;;;5.88;2.53;;;17.80;99.90;;;;;;5085730;28;20192;-75
2023/07/25 02:22:58;;;;;;;4.50;2.30;;;17.90;99.90;;;;;;5073451;28;20185;-79
2023/07/25 02:25:30;;;;;;;2.88;1.85;;;17.90;99.90;;;;;;5073281;28;20200;-80
2023/07/25 02:28:01;;;;;;;3.78;1.90;;;17.90;99.90;;;;;;5072964;28;20204;-82
2023/07/25 02:30:33;;;;;;;4.15;1.70;;;17.90;99.90;;;;;;5073435;28;20208;-82
2023/07/25 02:33:03;;;;;;;6.93;1.52;;;18.00;99.90;;;;;;5073514;28;20629;-80
2023/07/25 02:35:34;;;;;;;4.03;1.58;;;18.10;99.90;;;;;;5053896;28;20224;-79
2023/07/25 02:38:05;;;;;;;4.15;1.80;;;18.10;99.90;;;;;;5058070;28;20271;-76
2023/07/25 02:40:38;;;;;;;4.30;1.40;;;18.10;99.90;;;;;;5080516;28;20215;-82
2023/07/25 02:43:10;;;;;;;3.03;1.38;;;18.10;99.90;;;;;;5073086;28;20189;-80
2023/07/25 02:45:41;;;;;;;3.42;1.33;;;18.10;99.90;;;;;;5086872;28;20194;-76
2023/07/25 02:48:11;;;;;;;2.25;1.38;;;18.20;99.90;;;;;;5093227;28;20191;-80
2023/07/25 02:50:42;;;;;;;3.83;1.38;;;18.20;99.90;;;;;;5077495;28;20199;-76
2023/07/25 02:53:13;;;;;;;3.33;1.58;;;18.20;99.90;;;;;;5052999;28;20193;-76
2023/07/25 02:55:45;;;;;;;4.60;1.73;;;18.20;99.90;;;;;;5053000;28;20186;-76
2023/07/25 02:58:16;;;;;;;4.68;1.75;;;18.30;99.90;;;;;;5053131;28;20701;-76
2023/07/25 03:00:47;;;;;;;2.95;1.60;;;18.40;99.90;;;;;;5053110;28;20201;-82
2023/07/25 03:03:18;;;;;;;5.20;1.58;;;18.40;99.90;;;;;;5052926;28;20197;-82
2023/07/25 03:05:49;;;;;;;3.67;1.50;;;18.40;99.90;;;;;;5053038;28;20194;-83
2023/07/25 03:08:19;;;;;;;2.92;1.58;;;18.40;99.90;;;;;;5053364;28;20244;-79
2023/07/25 03:10:52;;;;;;;5.00;1.80;;;18.40;99.90;;;;;;5051959;28;20306;-79
2023/07/25 03:13:23;;;;;;;2.53;1.60;;;18.40;99.90;;;;;;5070220;28;20205;-81
2023/07/25 03:15:54;;;;;;;3.70;1.90;;;18.50;99.90;;;;;;5087426;28;20197;-81
2023/07/25 03:18:24;;;;;;;5.32;1.70;;;18.50;99.90;;;;;;5072740;28;20217;-83
2023/07/25 03:20:55;;;;;;;2.90;1.70;;;18.50;99.90;;;;;;5071295;28;20562;-82
2023/07/25 03:23:26;;;;;;;3.63;1.80;;;18.50;99.90;;;;;;5058412;28;20196;-81
2023/07/25 03:25:59;;;;;;;4.80;1.70;;;18.60;99.90;;;;;;5060214;28;20207;-81
2023/07/25 03:28:30;;;;;;;4.28;2.03;;;18.50;99.90;;;;;;5067138;28;20197;-80
2023/07/25 03:31:00;;;;;;;3.05;1.52;;;18.50;99.90;;;;;;5071283;28;20196;-81
2023/07/25 03:33:31;;;;;;;4.72;1.80;;;18.50;99.90;;;;;;5072899;28;20203;-82
2023/07/25 03:36:02;;;;;;;3.83;2.00;;;18.60;99.90;;;;;;5076323;28;20641;-77
2023/07/25 03:38:33;;;;;;;3.72;1.38;;;18.60;99.90;;;;;;5075599;28;20213;-81
2023/07/25 03:41:06;;;;;;;3.38;1.45;;;18.60;99.90;;;;;;5076312;28;20225;-81
2023/07/25 03:43:37;;;;;;;4.53;1.60;;;18.60;99.90;;;;;;5076396;28;20215;-82
2023/07/25 03:46:07;;;;;;;3.13;1.60;;;18.50;99.90;;;;;;5076587;28;20203;-79
2023/07/25 03:48:38;;;;;;;3.03;1.60;;;18.50;99.90;;;;;;5075848;28;20204;-82
2023/07/25 03:51:09;;;;;;;2.35;1.63;;;18.40;99.90;;;;;;5076148;28;20193;-81
2023/07/25 03:53:40;;;;;;;2.92;1.65;;;18.20;99.90;;;;;;5075894;28;20200;-83
2023/07/25 03:56:12;;;;;;;2.80;1.73;;;18.00;99.90;;;;;;5076054;28;20185;-83
2023/07/25 03:58:43;;;;;;;3.42;2.05;;;17.90;99.90;;;;;;5075995;28;20217;-81
2023/07/25 04:01:14;;;;;;;3.10;1.85;;;17.90;99.90;;;;;;5076098;28;20199;-83
2023/07/25 04:03:45;;;;;;;2.72;1.60;;;17.90;99.90;;;;;;5076014;28;20185;-81
2023/07/25 04:06:15;;;;;;;2.58;1.50;;;17.90;99.90;;;;;;5075891;28;20562;-81
2023/07/25 04:08:46;;;;;;;5.38;1.65;;;18.00;99.90;;;;;;5075607;28;20233;-82
2023/07/25 04:11:19;;;;;;;2.65;1.40;;;18.00;99.90;;;;;;5075833;28;20199;-81
2023/07/25 04:13:50;;;;;;;6.15;1.80;;;18.10;99.90;;;;;;5076330;28;20185;-81
2023/07/25 04:16:20;;;;;;;3.45;1.85;;;18.10;99.90;;;;;;5075772;28;20211;-81
2023/07/25 04:18:51;;;;;;;3.30;1.65;;;18.20;99.90;;;;;;5075634;28;20219;-81
2023/07/25 04:21:22;;;;;;;3.25;1.45;;;18.20;99.90;;;;;;5075990;28;20189;-81
2023/07/25 04:23:53;;;;;;;3.65;1.60;;;18.20;99.90;;;;;;5075723;28;20601;-82
2023/07/25 04:26:25;;;;;;;2.00;1.42;;;18.20;99.90;;;;;;5075794;28;20193;-82
2023/07/25 04:28:56;;;;;;;4.30;1.70;;;18.30;99.90;;;;;;5075968;28;20284;-82
2023/07/25 04:31:27;;;;;;;4.18;1.60;;;18.30;99.90;;;;;;5075726;28;20189;-82
2023/07/25 04:33:58;;;;;;;4.82;1.77;;;18.40;99.90;;;;;;5075411;28;20318;-82
2023/07/25 04:36:31;;;;;;;4.43;1.70;;;18.40;99.90;;;;;;5075409;28;20184;-82
2023/07/25 04:39:02;;;;;;;2.85;1.88;;;18.40;99.90;;;;;;5075064;28;20239;-82
2023/07/25 04:41:35;;;;;;;5.78;1.80;;;18.30;99.90;;;;;;5074305;28;20276;-82
2023/07/25 04:44:06;;;;;;;4.00;1.75;;;18.20;99.90;;;;;;5075222;28;20189;-83
2023/07/25 04:46:37;;;;;;;3.13;1.90;;;18.00;99.90;;;;;;5075268;28;20660;-84
2023/07/25 04:49:11;;;;;;;3.38;1.80;;;17.90;99.90;;;;;;5075186;28;20228;-81
2023/07/25 04:51:42;;;;;;;4.05;1.90;;;17.80;99.90;;;;;;5075030;28;20210;-83
2023/07/25 04:54:12;;;;;;;3.53;2.10;;;17.80;99.90;;;;;;5075122;28;20550;-80
2023/07/25 04:56:45;;;;;;;4.57;2.13;;;17.80;99.90;;;;;;5074913;28;20629;-81
2023/07/25 04:59:16;;;;;;;2.25;1.52;;;17.80;99.90;;;;;;5075024;28;20223;-81
2023/07/25 05:01:47;;;;;;;1.63;1.50;;;17.80;99.90;;;;;;5074494;28;20559;-81
2023/07/25 05:04:17;;;;;;;2.13;1.80;;;17.80;99.90;;;;;;5075158;28;20189;-82
2023/07/25 05:06:48;;;;;;;4.32;1.85;;;17.80;99.90;;;;;;5074486;28;20571;-82
2023/07/25 05:09:20;;;;;;;5.55;1.83;;;17.80;99.90;;;;;;5074508;28;20312;-82
2023/07/25 05:11:52;;;;;;;4.55;1.88;;;17.80;99.90;;;;;;5074640;28;20621;-82
2023/07/25 05:14:23;;;;;;;3.33;1.90;;;17.80;99.90;;;;;;5074614;28;20193;-82
2023/07/25 05:16:54;;;;;;;2.35;1.60;;;17.70;99.90;;;;;;5074402;28;20287;-82
2023/07/25 05:19:25;;;;;;;2.35;1.70;;;17.60;99.90;;;;;;5074177;28;20307;-80
2023/07/25 05:21:56;;;;;;;4.07;1.80;;;17.60;99.90;;;;;;5074235;28;20649;-80
2023/07/25 05:24:27;;;;;;;3.28;1.90;;;17.50;99.90;;;;;;5074483;28;20193;-82
2023/07/25 05:27:00;;;;;;;4.15;1.90;;;17.50;99.90;;;;;;5074407;28;20197;-79
2023/07/25 05:29:30;;;;;;;3.20;1.90;;;17.50;99.90;;;;;;5075208;28;20195;-82
2023/07/25 05:32:01;;;;;;;3.53;1.85;;;17.40;99.90;;;;;;5074813;28;20276;-78
2023/07/25 05:34:32;;;;;;;3.25;2.17;;;17.30;99.90;;;;;;5074607;28;20189;-82
2023/07/25 05:37:03;;;;;;;3.97;1.80;;;17.20;99.90;;;;;;5074158;28;20185;-82
2023/07/25 05:39:33;;;;;;;8.82;2.50;;;17.10;99.90;;;;;;5073929;28;20727;-82
2023/07/25 05:42:06;;;;;;;5.07;2.10;;;17.10;99.90;;;;;;5074134;28;20204;-79
2023/07/25 05:44:37;;;;;;;3.63;1.92;;;17.20;99.90;;;;;;5074069;28;20196;-81
2023/07/25 05:47:08;;;;;;;5.50;2.17;;;17.20;99.90;;;;;;5073936;28;20184;-81
2023/07/25 05:49:39;;;;;;;5.22;2.38;;;17.20;99.90;;;;;;5073401;28;20656;-80
2023/07/25 05:52:10;;;;;;;3.83;2.15;;;17.20;99.90;;;;;;5074329;28;20530;-81
2023/07/25 05:54:41;;;;;;;3.50;1.90;;;17.20;99.90;;;;;;5073664;28;20637;-82
2023/07/25 05:57:14;;;;;;;3.10;1.90;;;17.20;99.90;;;;;;5073881;28;20549;-81
2023/07/25 05:59:44;;;;;;;4.75;2.00;;;17.20;99.90;;;;;;5073735;28;20217;-82
2023/07/25 06:02:16;;;;;;;4.85;2.00;;;17.20;99.90;;;;;;5073658;28;20192;-81
2023/07/25 06:04:47;;;;;;;4.32;1.92;;;17.20;99.90;;;;;;5073639;28;20188;-82
2023/07/25 06:07:18;;;;;;;2.38;1.77;;;17.10;99.90;;;;;;5073709;28;20197;-83
2023/07/25 06:09:49;;;;;;;3.28;1.90;;;17.20;99.90;;;;;;5073564;28;20314;-80
2023/07/25 06:12:21;;;;;;;3.97;1.98;;;17.10;99.90;;;;;;5073201;28;20235;-81
2023/07/25 06:14:53;;;;;;;3.50;1.88;;;17.00;99.90;;;;;;5073423;28;20189;-82
2023/07/25 06:17:24;;;;;;;5.32;2.10;;;17.00;99.90;;;;;;5073417;28;20644;-82
2023/07/25 06:19:55;;;;;;;3.38;2.03;;;17.00;99.90;;;;;;5073125;28;20231;-82
2023/07/25 06:22:25;;;;;;;3.35;1.92;;;16.90;99.90;;;;;;5073342;28;20570;-80
2023/07/25 06:24:56;;;;;;;4.88;2.40;;;16.90;99.90;;;;;;5073206;28;20709;-82
2023/07/25 06:27:29;;;;;;;3.08;2.10;;;16.80;99.90;;;;;;5073762;28;20218;-82
2023/07/25 06:30:00;;;;;;;5.00;2.10;;;16.80;99.90;;;;;;5073390;28;20200;-82
2023/07/25 06:32:31;;;;;;;3.38;1.90;;;16.70;99.90;;;;;;5073125;28;20306;-78
2023/07/25 06:35:02;;;;;;;5.20;2.05;;;16.60;99.90;;;;;;5073282;28;20648;-82
2023/07/25 06:37:35;;;;;;;3.53;1.80;;;16.60;99.90;;;;;;5073393;28;20199;-81
2023/07/25 06:40:06;;;;;;;3.72;2.00;;;16.50;99.90;;;;;;5073192;28;20233;-82
2023/07/25 06:42:38;;;;;;;6.78;1.90;;;16.50;99.90;;;;;;5073630;28;20219;-82
2023/07/25 06:45:10;;;;;;;4.05;2.15;;;16.40;99.90;;;;;;5073250;28;20224;-81
2023/07/25 06:47:41;;;;;;;5.22;2.20;;;16.30;99.90;;;;;;5073075;28;20188;-81
2023/07/25 06:50:12;;;;;;;5.43;2.20;;;16.30;99.90;;;;;;5073042;28;20189;-79
2023/07/25 06:52:43;;;;;;;5.65;2.30;;;16.30;99.90;;;;;;5072867;28;20195;-82
2023/07/25 06:55:13;;;;;;;3.55;2.30;;;16.20;99.90;;;;;;5073050;28;20193;-81
2023/07/25 06:57:46;;;;;;;3.25;1.88;;;16.10;99.90;;;;;;5073217;28;20199;-78
2023/07/25 07:00:18;;;;;;;4.47;2.03;;;16.00;99.90;;;;;;5072732;28;20217;-82
2023/07/25 07:02:49;;;;;;;2.15;1.95;;;16.00;99.90;;;;;;5072638;28;20227;-76
2023/07/25 07:05:20;;;;;;;3.72;1.80;;;15.90;99.90;;;;;;5077117;28;20184;-81
2023/07/25 07:07:51;;;;;;;4.05;1.88;;;15.80;99.90;;;;;;5076988;28;20556;-80
2023/07/25 07:10:21;;;;;;;2.97;2.20;;;15.80;99.90;;;;;;5076962;28;20232;-80
2023/07/25 07:12:54;;;;;;;3.08;1.85;;;15.70;99.90;;;;;;5077194;28;20189;-80
2023/07/25 07:15:26;;;;;;;7.72;2.30;;;15.70;99.90;;;;;;5077361;28;20633;-80
2023/07/25 07:17:56;;;;;;;3.80;2.25;;;15.60;99.90;;;;;;5076776;28;20246;-81
2023/07/25 07:20:28;;;;;;;3.58;2.25;;;15.60;99.90;;;;;;5076749;28;20259;-79
2023/07/25 07:22:58;;;;;;;3.75;2.30;;;15.50;99.90;;;;;;5076596;28;20212;-79
2023/07/25 07:25:29;;;;;;;5.38;2.45;;;15.50;99.90;;;;;;5076661;28;20268;-79
2023/07/25 07:28:02;;;;;;;6.43;2.88;;;15.40;99.90;;;;;;5076956;28;20185;-79
2023/07/25 07:30:33;;;;;;;7.80;4.32;;;15.40;99.90;;;;;;5076493;28;20289;-79
2023/07/25 07:33:03;;;;;;;10.35;5.35;;;15.30;99.90;;;;;;5076546;28;20276;-77
2023/07/25 07:35:34;;;;;;;14.15;6.20;;;15.20;99.90;;;;;;5076516;28;20191;-79
2023/07/25 07:38:05;;;;;;;11.82;6.47;;;15.20;99.90;;;;;;5076460;28;20247;-77
2023/07/25 07:40:37;;;;;;;11.10;6.80;;;15.10;99.90;;;;;;5076166;28;20236;-79
2023/07/25 07:43:09;;;;;;;10.82;6.72;;;15.10;99.90;;;;;;5076097;28;20197;-75
2023/07/25 07:45:40;;;;;;;11.45;6.60;;;15.00;99.90;;;;;;5076238;28;20197;-76
2023/07/25 07:48:11;;;;;;;6.93;5.07;;;15.00;99.90;;;;;;5076164;28;20184;-80
2023/07/25 07:50:42;;;;;;;7.28;4.97;;;14.90;99.90;;;;;;5076070;28;20558;-76
2023/07/25 07:53:13;;;;;;;7.72;3.67;;;14.90;99.90;;;;;;5075950;28;20220;-75
2023/07/25 07:55:44;;;;;;;6.43;3.85;;;14.90;99.90;;;;;;5076205;28;20216;-76
2023/07/25 07:58:17;;;;;;;5.22;3.63;;;14.80;99.90;;;;;;5076070;28;20674;-80
2023/07/25 08:00:48;;;;;;;6.78;3.75;;;14.80;99.90;;;;;;5075830;28;20232;-76
2023/07/25 08:03:18;;;;;;;6.35;3.30;;;14.70;99.90;;;;;;5075748;28;20191;-78
2023/07/25 08:05:49;;;;;;;5.28;3.65;;;14.60;99.90;;;;;;5075794;28;20189;-78
2023/07/25 08:08:20;;;;;;;6.45;3.55;;;14.60;99.90;;;;;;5075763;28;20189;-79
2023/07/25 08:10:51;;;;;;;7.85;3.70;;;14.50;99.90;;;;;;5075991;28;20285;-78
2023/07/25 08:13:23;;;;;;;5.38;3.50;;;14.40;99.90;;;;;;5075688;28;20207;-75
2023/07/25 08:15:54;;;;;;;5.13;3.17;;;14.40;99.90;;;;;;5075451;28;20185;-77
2023/07/25 08:18:25;;;;;;;7.65;2.90;;;14.30;99.90;;;;;;5075653;28;20309;-78
2023/07/25 08:20:59;;;;;;;7.97;3.20;;;14.20;99.90;;;;;;5075471;28;20227;-75
2023/07/25 08:23:30;;;;;;;5.68;2.88;;;14.20;99.90;;;;;;5075758;28;20200;-76
2023/07/25 08:26:01;;;;;;;5.30;3.20;;;14.10;99.90;;;;;;5075655;28;20189;-76
2023/07/25 08:28:34;;;;;;;4.30;2.80;;;14.00;99.90;;;;;;5075689;28;20196;-79
2023/07/25 08:31:06;;;;;;;4.53;2.65;;;14.00;99.90;;;;;;5075430;28;20195;-80
2023/07/25 08:33:37;;;;;;;4.38;2.45;;;13.90;99.90;;;;;;5075456;28;20635;-78
2023/07/25 08:36:08;;;;;;;4.95;2.80;;;13.90;99.90;;;;;;5075135;28;20196;-74
2023/07/25 08:38:41;;;;;;;7.05;3.20;;;13.90;99.90;;;;;;5075241;28;20551;-75
2023/07/25 08:41:15;;;;;;;8.35;3.38;;;13.80;99.90;;;;;;5075078;28;20221;-76
2023/07/25 08:43:48;;;;;;;8.27;3.63;;;13.80;99.90;;;;;;5074805;28;20640;-79
2023/07/25 08:46:22;;;;;;;6.63;3.17;;;13.80;99.90;;;;;;5075204;28;20185;-76
2023/07/25 08:48:56;;;;;;;5.03;3.67;;;13.70;99.90;;;;;;5074971;28;20197;-76
2023/07/25 08:51:29;;;;;;;6.35;3.55;;;13.70;99.90;;;;;;5074876;28;20204;-76
2023/07/25 08:54:08;;;;;;;5.30;3.58;;;13.70;99.90;;;;;;5075129;28;20221;-76
2023/07/25 08:56:40;;;;;;;6.95;4.00;;;13.70;99.90;;;;;;5075028;28;20587;-75
2023/07/25 08:59:14;;;;;;;9.65;4.70;;;13.70;99.90;;;;;;5074655;28;20189;-76
2023/07/25 09:01:45;;;;;;;10.77;4.63;;;13.70;99.90;;;;;;5074671;28;20211;-76
2023/07/25 09:04:17;;;;;;;9.68;4.55;;;13.60;99.90;;;;;;5074982;28;20558;-75
2023/07/25 09:06:48;;;;;;;11.95;4.70;;;13.50;99.90;;;;;;5074759;28;20189;-74
2023/07/25 09:09:19;;;;;;;7.05;4.72;;;13.50;99.90;;;;;;5074334;28;20237;-75
2023/07/25 09:11:50;;;;;;;8.60;4.72;;;13.40;99.90;;;;;;5074440;28;20193;-74
2023/07/25 09:14:22;;;;;;;8.45;4.72;;;13.40;99.90;;;;;;5074370;28;20199;-75
2023/07/25 09:16:53;;;;;;;9.15;5.63;;;13.40;99.90;;;;;;5075123;28;20191;-75
2023/07/25 09:19:25;;;;;;;12.25;6.28;;;13.40;99.90;;;;;;5074237;28;20599;-74
2023/07/25 09:21:57;;;;;;;8.32;5.78;;;13.40;99.90;;;;;;5074512;28;20550;-74
2023/07/25 09:24:38;;;;;;;10.07;6.15;;;13.30;99.90;;;;;;5074528;28;20197;-75
2023/07/25 09:27:18;;;;;;;10.38;6.00;;;13.30;99.90;;;;;;5073623;28;20199;-78
2023/07/25 09:29:54;;;;;;;10.20;6.15;;;13.30;99.90;;;;;;5074308;28;20230;-79
2023/07/25 09:32:25;;;;;;;10.25;5.88;;;13.30;99.90;;;;;;5073919;28;20199;-80
2023/07/25 09:34:59;;;;;;;10.15;5.68;;;13.20;99.90;;;;;;5074070;28;20550;-79
2023/07/25 09:37:31;;;;;;;11.02;5.63;;;13.20;99.90;;;;;;5073945;28;20191;-78
2023/07/25 09:40:02;;;;;;;12.38;6.43;;;13.20;99.90;;;;;;5073880;28;20243;-79
2023/07/25 09:42:33;;;;;;;9.85;6.13;;;13.10;99.90;;;;;;5073803;28;20192;-80
2023/07/25 09:45:09;;;;;;;11.45;6.00;;;13.10;99.90;;;;;;5073887;28;20200;-79
2023/07/25 09:47:40;;;;;;;13.07;6.82;;;13.10;99.90;;;;;;5064056;28;20201;-77
2023/07/25 09:50:12;;;;;;;12.98;6.97;;;13.00;99.90;;;;;;5056679;28;20197;-80
2023/07/25 09:52:43;;;;;;;10.07;6.82;;;13.00;99.90;;;;;;5068967;28;20197;-79
2023/07/25 09:55:14;;;;;;;14.20;7.20;;;13.00;99.90;;;;;;5061812;28;20198;-79
2023/07/25 09:57:46;;;;;;;9.63;7.00;;;13.00;99.90;;;;;;5060075;28;20200;-80
2023/07/25 10:00:19;;;;;;;12.30;7.18;;;13.00;99.90;;;;;;5053640;28;20213;-80
2023/07/25 10:02:51;;;;;;;9.73;6.43;;;13.00;99.90;;;;;;5053489;28;20277;-75
2023/07/25 10:05:22;;;;;;;11.32;6.25;;;12.90;99.90;;;;;;5063560;28;20233;-74
2023/07/25 10:07:54;;;;;;;10.52;5.85;;;13.00;99.90;;;;;;5061041;28;20687;-77
2023/07/25 10:10:26;;;;;;;8.70;5.72;;;12.90;99.90;;;;;;5072775;28;20355;-79
2023/07/25 10:12:57;;;;;;;9.02;6.45;;;12.90;99.90;;;;;;5073564;28;20254;-79
2023/07/25 10:15:30;;;;;;;11.85;7.30;;;12.90;99.90;;;;;;5064712;28;20200;-77
2023/07/25 10:18:06;;;;;;;13.98;6.85;;;12.80;99.90;;;;;;5073129;28;20193;-79
2023/07/25 10:20:37;;;;;;;9.40;5.88;;;12.80;99.90;;;;;;5071571;28;20683;-77
2023/07/25 10:23:13;;;;;;;10.32;6.05;;;12.80;99.90;;;;;;5070237;28;20211;-77
2023/07/25 10:25:44;;;;;;;11.60;6.50;;;12.70;99.90;;;;;;5070947;28;20203;-77
2023/07/25 10:28:16;;;;;;;12.10;6.70;;;12.70;99.90;;;;;;5067447;28;20200;-79
2023/07/25 10:30:49;;;;;;;14.30;6.30;;;12.70;99.90;;;;;;5066331;28;20246;-79
2023/07/25 10:33:21;;;;;;;11.00;6.30;;;12.70;99.90;;;;;;5069076;28;20292;-79
2023/07/25 10:35:52;;;;;;;10.75;6.20;;;12.70;99.90;;;;;;5073181;28;20204;-76
2023/07/25 10:38:34;;;;;;;9.48;5.43;;;12.70;99.90;;;;;;5069974;28;20197;-78
2023/07/25 10:41:16;;;;;;;10.18;5.97;;;12.70;99.90;;;;;;5065179;28;20212;-79
2023/07/25 10:44:00;;;;;;;8.88;5.22;;;12.70;99.90;;;;;;5071654;28;20197;-78
2023/07/25 10:46:34;;;;;;;10.48;6.20;;;12.70;99.90;;;;;;5073011;28;20279;-75
2023/07/25 10:49:05;;;;;;;11.65;7.00;;;12.60;99.90;;;;;;5069731;28;20672;-77
2023/07/25 10:51:53;;;;;;;11.43;6.07;;;12.60;99.90;;;;;;5070338;28;20562;-76
2023/07/25 10:54:24;;;;;;;12.30;6.53;;;12.60;99.90;;;;;;5070308;28;20188;-78
2023/07/25 10:57:17;;;;;;;11.68;6.40;;;12.60;99.90;;;;;;5067879;28;20196;-77
2023/07/25 11:00:01;;;;;;;10.50;6.55;;;12.60;99.90;;;;;;5057541;28;20220;-77
2023/07/25 11:02:35;;;;;;;11.52;6.38;;;12.50;99.90;;;;;;5064079;28;20223;-78
2023/07/25 11:05:29;;;;;;;11.20;6.60;;;12.40;99.90;;;;;;5072656;28;20197;-79
2023/07/25 11:08:00;;;;;;;11.52;6.90;;;12.40;99.90;;;;;;5055947;28;20193;-77
2023/07/25 11:10:32;;;;;;;12.40;6.65;;;12.40;99.90;;;;;;5069867;28;20251;-78
2023/07/25 11:13:03;;;;;;;11.38;6.70;;;12.40;99.90;;;;;;5063578;28;20202;-78
2023/07/25 11:15:34;;;;;;;10.93;6.68;;;12.30;99.90;;;;;;5069896;28;20301;-78
2023/07/25 11:18:11;;;;;;;11.05;6.50;;;12.30;99.90;;;;;;5061378;28;20280;-78
2023/07/25 11:20:42;;;;;;;11.57;7.38;;;12.20;99.90;;;;;;5072434;28;20219;-78
2023/07/25 11:23:13;;;;;;;10.70;6.80;;;12.20;99.90;;;;;;5068994;28;20254;-77
2023/07/25 11:25:54;;;;;;;12.57;7.28;;;12.20;99.90;;;;;;5071229;28;20199;-79
2023/07/25 11:28:25;;;;;;;12.93;7.60;;;12.10;99.90;;;;;;5069889;28;20200;-79
2023/07/25 11:30:56;;;;;;;12.80;7.55;;;12.10;99.90;;;;;;5066300;28;20683;-78
2023/07/25 11:33:29;;;;;;;14.70;7.82;;;12.10;99.90;;;;;;5070774;28;20200;-78
2023/07/25 11:35:59;;;;;;;14.98;7.70;;;12.10;99.90;;;;;;5070105;28;20272;-80
2023/07/25 11:38:30;;;;;;;12.75;8.00;;;12.10;99.90;;;;;;5069510;28;20200;-77
2023/07/25 11:41:06;;;;;;;13.48;8.55;;;12.10;99.90;;;;;;5064266;28;20219;-79
2023/07/25 11:43:38;;;;;;;15.27;8.95;;;12.10;99.90;;;;;;5059263;28;20559;-77
2023/07/25 11:46:09;;;;;;;12.18;8.40;;;12.10;99.90;;;;;;5070257;28;20201;-78
2023/07/25 11:48:42;;;;;;;13.32;9.10;;;12.10;99.90;;;;;;5066370;28;20201;-79
2023/07/25 11:51:13;;;;;;;14.00;8.85;;;12.00;99.90;;;;;;5071138;28;20193;-78
2023/07/25 11:53:44;;;;;;;15.77;10.07;;;12.00;99.90;;;;;;5073508;28;20200;-78
2023/07/25 11:56:15;;;;;;;14.70;9.40;;;12.00;99.90;;;;;;5075467;28;20205;-79
2023/07/25 11:58:51;;;;;;;17.55;10.48;;;12.00;99.90;;;;;;5074385;28;20197;-79
2023/07/25 12:01:28;;;;;;;18.10;9.90;;;11.90;99.90;;;;;;5061056;28;20220;-79
2023/07/25 12:04:02;;;;;;;16.75;9.70;;;11.90;99.90;;;;;;5074566;28;20204;-78
2023/07/25 12:06:34;;;;;;;22.42;10.90;;;11.90;99.90;;;;;;5064455;28;20196;-79
2023/07/25 12:09:05;;;;;;;17.17;10.27;;;11.90;99.90;;;;;;5070693;28;20224;-80
2023/07/25 12:11:44;;;;;;;16.00;9.90;;;11.80;99.90;;;;;;5075588;28;20201;-79
2023/07/25 12:14:15;;;;;;;19.58;10.77;;;11.80;99.90;;;;;;5060400;28;20678;-76
2023/07/25 12:16:47;;;;;;;14.80;9.95;;;11.80;99.90;;;;;;5064865;28;20217;-79
2023/07/25 12:19:21;;;;;;;14.23;9.82;;;11.80;99.90;;;;;;5058771;28;20204;-77
2023/07/25 12:21:51;;;;;;;17.10;10.23;;;11.80;99.90;;;;;;5067528;28;20299;-79
2023/07/25 12:24:22;;;;;;;16.38;10.00;;;11.70;99.90;;;;;;5073917;28;20199;-79
2023/07/25 12:26:54;;;;;;;16.10;10.18;;;11.60;99.90;;;;;;5061464;28;20673;-79
2023/07/25 12:29:25;;;;;;;17.08;10.85;;;11.60;99.90;;;;;;5056240;28;20679;-79
2023/07/25 12:31:56;;;;;;;16.08;10.38;;;11.60;99.90;;;;;;5053737;28;20255;-79
2023/07/25 12:34:29;;;;;;;14.75;10.70;;;11.60;99.90;;;;;;5073113;28;20200;-79
2023/07/25 12:37:00;;;;;;;17.67;10.70;;;11.60;99.90;;;;;;5071910;28;20192;-78
2023/07/25 12:39:31;;;;;;;14.57;10.82;;;11.60;99.90;;;;;;5058686;28;20213;-79
2023/07/25 12:42:02;;;;;;;16.80;11.82;;;11.60;99.90;;;;;;5058480;28;20711;-76
2023/07/25 12:44:33;;;;;;;16.92;11.90;;;11.50;99.90;;;;;;5064851;28;20314;-78
2023/07/25 12:47:04;;;;;;;18.55;11.55;;;11.50;99.90;;;;;;5065055;28;20189;-75
2023/07/25 12:49:37;;;;;;;17.20;12.43;;;11.50;99.90;;;;;;5075064;28;20193;-74
2023/07/25 12:52:09;;;;;;;20.00;12.38;;;11.50;99.90;;;;;;5073510;28;20208;-76
2023/07/25 12:54:39;;;;;;;19.77;12.32;;;11.50;99.90;;;;;;5074866;28;20199;-75
2023/07/25 12:57:10;;;;;;;18.25;11.18;;;11.50;99.90;;;;;;5074816;28;20212;-76
2023/07/25 12:59:41;;;;;;;18.48;11.02;;;11.50;99.90;;;;;;5071768;28;20225;-76
2023/07/25 13:02:12;;;;;;;17.98;11.15;;;11.50;99.90;;;;;;5063371;28;20216;-78
2023/07/25 13:04:45;;;;;;;17.63;11.02;;;11.50;99.90;;;;;;5074708;28;20190;-75
2023/07/25 13:07:16;;;;;;;19.33;10.90;;;11.50;99.90;;;;;;5074725;28;20560;-79